createdAt,value
2022-08-26T00:01:46.618Z,26.41
2022-08-26T00:04:13.497Z,25.99
2022-08-26T00:06:46.256Z,25.87
2022-08-26T00:09:16.244Z,26.02
2022-08-26T00:11:45.574Z,25.83
2022-08-26T00:14:13.902Z,26.06
2022-08-26T00:16:47.606Z,25.72
2022-08-26T00:19:20.551Z,25.80
2022-08-26T00:21:49.664Z,25.46
2022-08-26T00:24:17.757Z,26.10
2022-08-26T00:26:44.828Z,25.96
2022-08-26T00:29:12.263Z,25.78
2022-08-26T00:31:39.214Z,26.44
2022-08-26T00:34:06.917Z,26.26
2022-08-26T00:36:36.250Z,25.89
2022-08-26T00:39:04.246Z,25.83
2022-08-26T00:41:30.866Z,26.04
2022-08-26T00:44:00.093Z,26.34
2022-08-26T00:46:31.460Z,25.52
2022-08-26T00:49:13.507Z,25.73
2022-08-26T00:51:47.684Z,25.32
2022-08-26T00:54:16.773Z,25.73
2022-08-26T00:56:53.292Z,26.12
2022-08-26T00:59:20.768Z,25.95
2022-08-26T01:01:47.933Z,25.51
2022-08-26T01:04:20.025Z,25.34
2022-08-26T01:06:49.158Z,25.22
2022-08-26T01:09:16.245Z,25.61
2022-08-26T01:11:43.449Z,25.93
2022-08-26T01:14:12.391Z,25.84
2022-08-26T01:16:39.435Z,25.79
2022-08-26T01:19:17.906Z,25.57
2022-08-26T01:21:49.556Z,25.72
2022-08-26T01:24:17.190Z,25.38
2022-08-26T01:26:45.416Z,25.14
2022-08-26T01:29:15.950Z,25.25
2022-08-26T01:31:46.879Z,25.81
2022-08-26T01:34:23.436Z,25.51
2022-08-26T01:36:54.452Z,25.68
2022-08-26T01:39:21.503Z,25.54
2022-08-26T01:41:53.571Z,25.70
2022-08-26T01:44:23.958Z,25.34
2022-08-26T01:46:52.753Z,25.79
2022-08-26T01:49:21.470Z,26.02
2022-08-26T01:51:52.734Z,25.41
2022-08-26T01:54:20.567Z,25.43
2022-08-26T01:56:52.616Z,25.37
2022-08-26T01:59:20.767Z,26.05
2022-08-26T02:01:48.762Z,25.52
2022-08-26T02:04:24.286Z,25.72
2022-08-26T02:06:51.716Z,25.68
2022-08-26T02:09:20.738Z,25.71
2022-08-26T02:11:47.830Z,25.81
2022-08-26T02:14:26.927Z,25.58
2022-08-26T02:16:55.221Z,25.63
2022-08-26T02:19:34.530Z,25.88
2022-08-26T02:22:05.822Z,25.61
2022-08-26T02:24:57.791Z,25.34
2022-08-26T02:27:32.486Z,25.63
2022-08-26T02:30:11.749Z,25.68
2022-08-26T02:36:29.052Z,26.00
2022-08-26T02:38:55.871Z,26.32
2022-08-26T02:41:23.308Z,25.10
2022-08-26T02:43:51.407Z,24.76
2022-08-26T02:46:27.666Z,25.08
2022-08-26T02:48:54.866Z,24.71
2022-08-26T02:51:21.537Z,25.41
2022-08-26T02:53:48.822Z,25.41
2022-08-26T02:56:15.548Z,24.78
2022-08-26T02:58:42.254Z,24.90
2022-08-26T03:01:18.570Z,25.35
2022-08-26T03:03:45.250Z,25.02
2022-08-26T03:06:14.886Z,24.82
2022-08-26T03:08:42.215Z,24.88
2022-08-26T03:11:08.876Z,25.26
2022-08-26T03:13:38.936Z,25.01
2022-08-26T03:16:06.638Z,25.17
2022-08-26T03:18:33.820Z,25.02
2022-08-26T03:21:13.357Z,25.40
2022-08-26T03:23:41.656Z,24.64
2022-08-26T03:26:11.039Z,24.85
2022-08-26T03:28:57.871Z,24.92
2022-08-26T03:31:25.178Z,25.03
2022-08-26T03:33:52.138Z,25.02
2022-08-26T03:36:19.527Z,25.16
2022-08-26T03:38:46.368Z,24.97
2022-08-26T03:41:14.971Z,25.35
2022-08-26T03:43:41.661Z,25.39
2022-08-26T03:46:10.560Z,25.03
2022-08-26T03:48:38.166Z,24.65
2022-08-26T03:51:11.292Z,24.78
2022-08-26T03:53:38.122Z,25.02
2022-08-26T03:56:06.550Z,24.69
2022-08-26T03:58:33.728Z,24.87
2022-08-26T04:01:00.535Z,25.59
2022-08-26T04:03:46.744Z,25.23
2022-08-26T04:06:13.282Z,25.59
2022-08-26T04:08:40.176Z,25.79
2022-08-26T04:11:07.227Z,25.84
2022-08-26T04:13:34.362Z,25.31
2022-08-26T04:16:01.122Z,25.52
2022-08-26T04:18:32.996Z,25.20
2022-08-26T04:21:07.758Z,25.36
2022-08-26T04:23:47.737Z,25.56
2022-08-26T04:26:15.783Z,25.04
2022-08-26T04:28:42.739Z,25.10
2022-08-26T04:31:14.771Z,25.69
2022-08-26T04:33:43.182Z,25.19
2022-08-26T04:36:10.783Z,25.15
2022-08-26T04:38:37.622Z,25.05
2022-08-26T04:41:06.991Z,25.14
2022-08-26T04:43:42.656Z,25.77
2022-08-26T04:46:10.332Z,24.71
2022-08-26T04:48:41.129Z,25.02
2022-08-26T04:51:09.710Z,25.65
2022-08-26T04:53:37.190Z,24.86
2022-08-26T04:56:04.669Z,25.38
2022-08-26T04:58:31.578Z,25.30
2022-08-26T05:00:58.516Z,25.41
2022-08-26T05:03:30.254Z,25.00
2022-08-26T05:05:58.495Z,24.86
2022-08-26T05:08:25.306Z,25.54
2022-08-26T05:10:56.251Z,25.98
2022-08-26T05:13:26.782Z,25.67
2022-08-26T05:15:54.448Z,25.58
2022-08-26T05:18:24.351Z,26.22
2022-08-26T05:20:54.687Z,25.99
2022-08-26T05:23:23.310Z,26.67
2022-08-26T05:25:55.796Z,26.21
2022-08-26T05:28:25.939Z,26.47
2022-08-26T05:30:52.809Z,26.29
2022-08-26T05:33:23.302Z,26.33
2022-08-26T05:35:50.584Z,26.32
2022-08-26T05:38:20.380Z,26.14
2022-08-26T05:40:52.834Z,26.47
2022-08-26T05:43:20.718Z,26.98
2022-08-26T05:45:49.734Z,26.66
2022-08-26T05:48:19.045Z,27.18
2022-08-26T05:50:53.227Z,26.62
2022-08-26T05:53:21.843Z,26.31
2022-08-26T05:55:50.902Z,27.10
2022-08-26T05:58:20.950Z,27.46
2022-08-26T06:01:10.540Z,27.67
2022-08-26T06:03:41.997Z,27.66
2022-08-26T06:06:11.857Z,27.87
2022-08-26T06:08:38.886Z,27.35
2022-08-26T06:11:12.715Z,27.62
2022-08-26T06:13:46.570Z,28.21
2022-08-26T06:16:17.301Z,28.44
2022-08-26T06:18:47.518Z,28.57
2022-08-26T06:21:27.558Z,28.45
2022-08-26T06:24:19.217Z,28.09
2022-08-26T06:26:53.079Z,27.43
2022-08-26T06:29:24.410Z,26.91
2022-08-26T06:31:52.845Z,28.05
2022-08-26T06:34:19.439Z,28.09
2022-08-26T06:36:47.802Z,28.16
2022-08-26T06:39:16.630Z,28.65
2022-08-26T06:41:44.892Z,27.77
2022-08-26T06:44:17.827Z,28.30
2022-08-26T06:46:45.922Z,28.54
2022-08-26T06:49:17.315Z,28.86
2022-08-26T06:51:44.157Z,28.58
2022-08-26T06:54:11.406Z,28.78
2022-08-26T06:56:41.967Z,27.78
2022-08-26T06:59:10.806Z,28.12
2022-08-26T07:01:44.869Z,29.14
2022-08-26T07:04:15.441Z,29.25
2022-08-26T07:06:48.886Z,28.39
2022-08-26T07:09:16.137Z,28.78
2022-08-26T07:11:42.804Z,29.52
2022-08-26T07:14:09.677Z,29.87
2022-08-26T07:16:36.890Z,28.96
2022-08-26T07:19:10.847Z,29.54
2022-08-26T07:21:41.538Z,29.33
2022-08-26T07:24:10.957Z,29.89
2022-08-26T07:26:38.488Z,30.19
2022-08-26T07:29:06.856Z,30.37
2022-08-26T07:31:39.498Z,30.70
2022-08-26T07:34:09.370Z,29.85
2022-08-26T07:36:36.560Z,29.77
2022-08-26T07:39:03.485Z,30.30
2022-08-26T07:44:02.012Z,29.83
2022-08-26T07:46:31.265Z,30.60
2022-08-26T07:48:59.056Z,31.05
2022-08-26T07:51:27.023Z,31.28
2022-08-26T07:53:54.900Z,32.02
2022-08-26T07:56:23.226Z,31.16
2022-08-26T07:58:53.653Z,32.13
2022-08-26T08:01:23.657Z,32.46
2022-08-26T08:03:52.017Z,32.29
2022-08-26T08:06:27.195Z,32.55
2022-08-26T08:08:54.414Z,33.27
2022-08-26T08:11:21.542Z,32.88
2022-08-26T08:13:56.567Z,33.06
2022-08-26T08:16:26.278Z,33.06
2022-08-26T08:18:53.715Z,32.96
2022-08-26T08:21:21.565Z,32.88
2022-08-26T08:23:49.047Z,33.40
2022-08-26T08:26:15.842Z,33.71
2022-08-26T08:28:43.766Z,33.67
2022-08-26T08:31:55.751Z,33.59
2022-08-26T08:34:16.413Z,34.28
2022-08-26T08:36:46.315Z,33.94
2022-08-26T08:39:13.769Z,33.47
2022-08-26T08:41:44.957Z,34.02
2022-08-26T08:44:21.078Z,35.00
2022-08-26T08:46:58.706Z,34.43
2022-08-26T08:49:26.034Z,33.75
2022-08-26T08:52:00.740Z,32.69
2022-08-26T08:54:29.124Z,32.94
2022-08-26T08:57:02.838Z,33.56
2022-08-26T08:59:35.495Z,34.12
2022-08-26T09:02:17.038Z,34.04
2022-08-26T09:05:08.390Z,33.83
2022-08-26T09:07:39.846Z,34.60
2022-08-26T09:10:37.155Z,34.33
2022-08-26T09:13:16.905Z,34.45
2022-08-26T09:15:56.427Z,34.15
2022-08-26T09:18:41.907Z,34.13
2022-08-26T09:21:17.870Z,34.43
2022-08-26T09:23:49.154Z,32.63
2022-08-26T09:26:48.682Z,33.45
2022-08-26T09:29:29.778Z,33.20
2022-08-26T09:32:16.271Z,33.52
2022-08-26T09:34:55.870Z,33.92
2022-08-26T09:40:35.456Z,34.98
2022-08-26T09:43:22.669Z,34.06
2022-08-26T09:45:59.446Z,34.73
2022-08-26T09:48:36.216Z,34.11
2022-08-26T09:51:26.502Z,33.67
2022-08-26T09:54:05.599Z,34.00
2022-08-26T09:56:38.375Z,33.75
2022-08-26T09:59:11.138Z,34.46
2022-08-26T10:01:42.061Z,34.94
2022-08-26T10:04:13.959Z,34.81
2022-08-26T10:07:02.364Z,34.25
2022-08-26T10:09:33.266Z,34.75
2022-08-26T10:12:04.460Z,34.99
2022-08-26T10:14:39.603Z,34.71
2022-08-26T10:17:14.456Z,33.88
2022-08-26T10:19:57.217Z,33.22
2022-08-26T10:22:38.652Z,34.19
2022-08-26T10:25:09.893Z,33.30
2022-08-26T10:27:49.537Z,33.93
2022-08-26T10:30:19.997Z,34.29
2022-08-26T10:33:05.016Z,33.80
2022-08-26T10:35:35.439Z,33.35
2022-08-26T10:38:10.994Z,34.32
2022-08-26T10:40:55.912Z,34.65
2022-08-26T10:43:29.990Z,34.56
2022-08-26T10:46:04.715Z,34.42
2022-08-26T10:48:52.027Z,35.95
2022-08-26T10:51:27.066Z,34.34
2022-08-26T10:53:59.758Z,35.69
2022-08-26T10:56:41.698Z,35.65
2022-08-26T10:59:31.829Z,35.09
2022-08-26T11:02:07.418Z,36.18
2022-08-26T11:04:47.540Z,36.30
2022-08-26T11:07:31.641Z,35.75
2022-08-26T11:10:18.954Z,36.11
2022-08-26T11:12:49.250Z,35.25
2022-08-26T11:15:26.171Z,36.00
2022-08-26T11:17:53.166Z,34.23
2022-08-26T11:20:23.767Z,32.85
2022-08-26T11:22:52.171Z,33.87
2022-08-26T11:25:19.363Z,35.00
2022-08-26T11:27:46.456Z,35.85
2022-08-26T11:30:15.757Z,35.56
2022-08-26T11:33:03.560Z,36.08
2022-08-26T11:35:34.236Z,35.66
2022-08-26T11:38:17.023Z,33.26
2022-08-26T11:40:45.382Z,35.05
2022-08-26T11:43:23.569Z,36.00
2022-08-26T11:46:04.579Z,36.01
2022-08-26T11:48:40.365Z,36.39
2022-08-26T11:51:20.440Z,35.85
2022-08-26T11:53:47.409Z,34.84
2022-08-26T11:56:32.465Z,34.60
2022-08-26T11:59:02.133Z,35.94
2022-08-26T12:01:37.965Z,35.18
2022-08-26T12:04:07.921Z,36.04
2022-08-26T12:06:45.042Z,36.34
2022-08-26T12:09:30.538Z,35.63
2022-08-26T12:12:15.846Z,34.80
2022-08-26T12:14:43.094Z,35.59
2022-08-26T12:17:15.112Z,36.09
2022-08-26T12:19:42.886Z,35.25
2022-08-26T12:22:22.168Z,35.79
2022-08-26T12:24:58.664Z,36.14
2022-08-26T12:27:28.871Z,35.64
2022-08-26T12:30:13.845Z,34.46
2022-08-26T12:33:08.050Z,34.48
2022-08-26T12:35:54.214Z,34.61
2022-08-26T12:38:24.990Z,34.55
2022-08-26T12:40:51.972Z,35.43
2022-08-26T12:43:57.303Z,34.47
2022-08-26T12:46:27.274Z,33.95
2022-08-26T12:48:54.909Z,34.96
2022-08-26T12:51:26.909Z,34.72
2022-08-26T12:53:54.502Z,34.93
2022-08-26T12:56:34.768Z,34.58
2022-08-26T12:59:24.369Z,34.52
2022-08-26T13:01:52.437Z,35.00
2022-08-26T13:04:32.551Z,34.90
2022-08-26T13:07:23.145Z,34.94
2022-08-26T13:09:55.861Z,34.75
2022-08-26T13:12:27.343Z,35.25
2022-08-26T13:14:54.356Z,34.75
2022-08-26T13:17:21.281Z,34.95
2022-08-26T13:19:48.229Z,34.66
2022-08-26T13:22:17.522Z,35.17
2022-08-26T13:24:44.471Z,34.87
2022-08-26T13:27:14.672Z,34.64
2022-08-26T13:29:41.513Z,34.60
2022-08-26T13:32:09.425Z,34.80
2022-08-26T13:34:37.554Z,35.00
2022-08-26T13:37:05.199Z,34.41
2022-08-26T13:39:32.395Z,34.33
2022-08-26T13:42:00.189Z,34.16
2022-08-26T13:44:27.131Z,34.20
2022-08-26T13:46:54.070Z,34.37
2022-08-26T13:49:20.809Z,34.75
2022-08-26T13:51:47.499Z,34.58
2022-08-26T13:54:14.164Z,34.51
2022-08-26T13:56:40.854Z,34.51
2022-08-26T13:59:07.553Z,34.56
2022-08-26T14:01:35.705Z,34.59
2022-08-26T14:04:03.180Z,34.70
2022-08-26T14:06:30.183Z,35.03
2022-08-26T14:08:57.429Z,35.20
2022-08-26T14:11:25.083Z,35.29
2022-08-26T14:13:52.468Z,35.50
2022-08-26T14:16:36.028Z,35.53
2022-08-26T14:19:05.536Z,35.42
2022-08-26T14:21:35.501Z,35.25
2022-08-26T14:24:02.703Z,34.88
2022-08-26T14:26:30.072Z,35.29
2022-08-26T14:29:02.547Z,35.46
2022-08-26T14:47:45.077Z,34.06
2022-08-26T14:55:32.761Z,31.78
2022-08-26T14:57:59.639Z,31.85
2022-08-26T15:00:27.645Z,31.98
2022-08-26T15:02:54.671Z,31.97
2022-08-26T15:05:22.791Z,31.28
2022-08-26T15:07:49.492Z,31.89
2022-08-26T15:10:18.062Z,30.98
2022-08-26T15:12:45.312Z,31.35
2022-08-26T15:15:15.001Z,31.17
2022-08-26T15:17:42.079Z,30.84
2022-08-26T15:20:12.149Z,31.13
2022-08-26T15:22:39.866Z,30.03
2022-08-26T15:25:07.799Z,30.71
2022-08-26T15:27:34.521Z,29.94
2022-08-26T15:30:09.012Z,29.95
2022-08-26T15:32:36.242Z,30.11
2022-08-26T15:35:08.212Z,30.41
2022-08-26T15:37:35.940Z,29.76
2022-08-26T15:40:02.926Z,30.06
2022-08-26T15:42:29.774Z,29.93
2022-08-26T15:44:56.527Z,29.44
2022-08-26T15:47:23.817Z,29.53
2022-08-26T15:49:50.768Z,30.29
2022-08-26T15:52:18.584Z,30.67
2022-08-26T15:54:45.304Z,30.66
2022-08-26T15:57:14.380Z,30.60
2022-08-26T15:59:42.155Z,29.98
2022-08-26T16:02:09.591Z,31.03
2022-08-26T16:04:36.733Z,31.05
2022-08-26T16:07:04.417Z,30.77
2022-08-26T16:09:31.153Z,30.96
2022-08-26T16:11:58.133Z,31.28
2022-08-26T16:14:25.975Z,30.25
2022-08-26T16:16:53.472Z,30.47
2022-08-26T16:19:22.891Z,30.50
2022-08-26T16:21:51.509Z,30.72
2022-08-26T16:24:24.888Z,31.43
2022-08-26T16:26:54.597Z,30.45
2022-08-26T16:29:21.412Z,30.43
2022-08-26T16:31:50.571Z,30.69
2022-08-26T16:34:17.372Z,31.08
2022-08-26T16:36:44.060Z,31.49
2022-08-26T16:39:11.007Z,31.29
2022-08-26T16:41:37.852Z,30.90
2022-08-26T16:44:06.278Z,30.50
2022-08-26T16:46:34.015Z,31.10
2022-08-26T16:49:03.950Z,31.21
2022-08-26T16:51:32.499Z,30.63
2022-08-26T16:54:05.006Z,30.79
2022-08-26T16:56:34.506Z,31.12
2022-08-26T16:59:04.248Z,30.84
2022-08-26T17:01:30.962Z,30.64
2022-08-26T17:03:57.709Z,30.46
2022-08-26T17:06:24.434Z,30.41
2022-08-26T17:08:51.378Z,30.54
2022-08-26T17:11:18.681Z,30.58
2022-08-26T17:13:45.374Z,30.23
2022-08-26T17:16:13.219Z,30.34
2022-08-26T17:18:40.334Z,30.19
2022-08-26T17:21:09.401Z,30.38
2022-08-26T17:23:37.405Z,30.10
2022-08-26T17:26:04.719Z,30.10
2022-08-26T17:28:32.489Z,30.13
2022-08-26T17:31:01.085Z,30.15
2022-08-26T17:33:28.811Z,30.08
2022-08-26T17:35:56.186Z,29.77
2022-08-26T17:38:23.310Z,30.05
2022-08-26T17:40:50.734Z,30.18
2022-08-26T17:43:18.409Z,30.20
2022-08-26T17:45:45.317Z,29.98
2022-08-26T17:48:12.367Z,29.97
2022-08-26T17:50:42.917Z,29.67
2022-08-26T17:53:18.825Z,30.04
2022-08-26T17:55:47.435Z,29.99
2022-08-26T17:58:17.182Z,29.69
2022-08-26T18:00:50.031Z,29.58
2022-08-26T18:03:18.466Z,29.57
2022-08-26T18:05:48.949Z,29.54
2022-08-26T18:08:15.613Z,29.50
2022-08-26T18:10:43.118Z,29.45
2022-08-26T18:13:10.143Z,29.45
2022-08-26T18:15:41.173Z,29.25
2022-08-26T18:18:08.317Z,29.23
2022-08-26T18:20:37.426Z,29.49
2022-08-26T18:23:04.067Z,29.81
2022-08-26T18:25:30.910Z,29.58
2022-08-26T18:27:57.637Z,29.60
2022-08-26T18:30:24.659Z,29.50
2022-08-26T18:32:52.010Z,29.41
2022-08-26T18:35:21.084Z,29.28
2022-08-26T18:37:48.164Z,29.21
2022-08-26T18:40:16.368Z,29.26
2022-08-26T18:42:43.104Z,29.32
2022-08-26T18:45:10.853Z,29.37
2022-08-26T18:47:43.232Z,29.47
2022-08-26T18:50:11.091Z,29.44
2022-08-26T18:52:38.705Z,29.16
2022-08-26T18:55:06.272Z,29.46
2022-08-26T18:57:32.867Z,29.32
2022-08-26T18:59:59.549Z,28.89
2022-08-26T19:02:26.243Z,28.73
2022-08-26T19:04:52.975Z,28.64
2022-08-26T19:07:20.412Z,28.96
2022-08-26T19:09:47.118Z,28.74
2022-08-26T19:12:20.534Z,28.76
2022-08-26T19:14:47.234Z,28.69
2022-08-26T19:17:14.174Z,28.76
2022-08-26T19:19:40.877Z,28.83
2022-08-26T19:22:07.777Z,28.72
2022-08-26T19:24:34.502Z,28.62
2022-08-26T19:27:02.389Z,28.62
2022-08-26T19:29:34.232Z,28.99
2022-08-26T19:32:02.038Z,28.97
2022-08-26T19:34:29.541Z,28.51
2022-08-26T19:36:58.319Z,28.47
2022-08-26T19:39:25.921Z,28.19
2022-08-26T19:41:53.433Z,28.17
2022-08-26T19:44:41.119Z,28.11
2022-08-26T19:47:09.357Z,28.11
2022-08-26T19:49:36.797Z,27.96
2022-08-26T19:52:04.014Z,27.97
2022-08-26T19:54:30.615Z,27.75
2022-08-26T19:56:57.447Z,27.94
2022-08-26T19:59:24.291Z,27.67
2022-08-26T20:02:00.481Z,27.92
2022-08-26T20:04:29.633Z,27.66
2022-08-26T20:06:57.639Z,27.89
2022-08-26T20:09:25.899Z,27.59
2022-08-26T20:11:52.595Z,27.51
2022-08-26T20:14:23.323Z,27.54
2022-08-26T20:16:50.065Z,27.52
2022-08-26T20:19:37.542Z,27.42
2022-08-26T20:22:05.111Z,27.52
2022-08-26T20:24:32.644Z,27.66
2022-08-26T20:27:03.237Z,28.13
2022-08-26T20:29:32.586Z,27.85
2022-08-26T20:31:59.286Z,27.49
2022-08-26T20:34:26.378Z,27.90
2022-08-26T20:36:53.082Z,27.73
2022-08-26T20:39:21.487Z,27.71
2022-08-26T20:41:48.824Z,27.55
2022-08-26T20:44:17.693Z,27.75
2022-08-26T20:46:44.967Z,27.81
2022-08-26T20:49:13.258Z,27.51
2022-08-26T20:51:41.027Z,27.68
2022-08-26T20:54:07.890Z,27.79
2022-08-26T20:56:35.412Z,27.60
2022-08-26T20:59:02.876Z,27.96
2022-08-26T21:01:34.594Z,27.82
2022-08-26T21:04:04.445Z,27.77
2022-08-26T21:06:33.916Z,27.74
2022-08-26T21:09:02.328Z,27.68
2022-08-26T21:11:29.296Z,27.57
2022-08-26T21:14:16.209Z,27.91
2022-08-26T21:16:44.018Z,28.42
2022-08-26T21:19:13.873Z,27.87
2022-08-26T21:21:41.531Z,27.71
2022-08-26T21:24:08.799Z,27.51
2022-08-26T21:26:35.515Z,27.15
2022-08-26T21:29:05.016Z,27.23
2022-08-26T21:31:32.148Z,26.92
2022-08-26T21:33:59.784Z,27.23
2022-08-26T21:36:26.732Z,27.32
2022-08-26T21:38:59.539Z,27.14
2022-08-26T21:41:27.210Z,27.01
2022-08-26T21:43:59.136Z,27.25
2022-08-26T21:46:28.472Z,27.19
2022-08-26T21:49:00.666Z,27.10
2022-08-26T21:51:30.361Z,26.85
2022-08-26T21:53:58.651Z,26.89
2022-08-26T21:56:28.039Z,26.79
2022-08-26T21:58:56.238Z,26.81
2022-08-26T22:01:26.005Z,26.63
2022-08-26T22:03:53.505Z,27.09
2022-08-26T22:06:25.021Z,27.03
2022-08-26T22:08:52.561Z,26.98
2022-08-26T22:11:20.120Z,26.81
2022-08-26T22:13:48.606Z,26.82
2022-08-26T22:16:15.999Z,27.13
2022-08-26T22:18:45.898Z,26.87
2022-08-26T22:21:16.638Z,27.32
2022-08-26T22:23:44.251Z,26.90
2022-08-26T22:26:13.361Z,27.25
2022-08-26T22:28:41.002Z,27.06
2022-08-26T22:31:11.359Z,27.00
2022-08-26T22:33:39.871Z,26.94
2022-08-26T22:36:07.009Z,27.31
2022-08-26T22:38:34.264Z,27.06
2022-08-26T22:41:01.939Z,26.84
2022-08-26T22:43:31.544Z,27.01
2022-08-26T22:45:58.423Z,27.27
2022-08-26T22:48:26.769Z,26.98
2022-08-26T22:51:00.035Z,27.68
2022-08-26T22:53:27.733Z,26.61
2022-08-26T22:55:54.937Z,26.60
2022-08-26T22:58:30.402Z,27.19
2022-08-26T23:00:59.353Z,27.02
2022-08-26T23:03:27.290Z,27.20
2022-08-26T23:05:55.900Z,27.35
2022-08-26T23:08:24.982Z,26.88
2022-08-26T23:10:52.409Z,26.70
2022-08-26T23:13:19.130Z,27.00
2022-08-26T23:15:46.275Z,26.89
2022-08-26T23:18:14.761Z,27.00
2022-08-26T23:20:42.125Z,26.92
2022-08-26T23:23:09.419Z,27.06
2022-08-26T23:25:37.118Z,27.00
2022-08-26T23:28:04.230Z,26.91
2022-08-26T23:30:32.855Z,26.64
2022-08-26T23:32:59.663Z,27.24
2022-08-26T23:35:27.023Z,27.24
2022-08-26T23:37:53.933Z,26.82
2022-08-26T23:40:25.679Z,26.83
2022-08-26T23:42:54.490Z,26.88
2022-08-26T23:45:22.376Z,26.58
2022-08-26T23:47:52.339Z,26.82
2022-08-26T23:50:21.505Z,26.85
2022-08-26T23:53:07.287Z,26.58
2022-08-26T23:55:37.967Z,26.53
2022-08-26T23:58:05.939Z,26.77
